createdAt,value
2018-04-23T00:00:48.457Z,21.8
2018-04-23T00:01:38.490Z,21.8
2018-04-23T00:02:27.818Z,21.8
2018-04-23T00:03:17.241Z,21.8
2018-04-23T00:04:08.175Z,21.8
2018-04-23T00:04:57.963Z,21.8
2018-04-23T00:05:48.322Z,21.7
2018-04-23T00:06:38.165Z,21.8
2018-04-23T00:07:28.727Z,21.8
2018-04-23T00:08:18.585Z,21.8
2018-04-23T00:09:08.528Z,21.8
2018-04-23T00:09:58.689Z,21.7
2018-04-23T00:10:47.931Z,21.7
2018-04-23T00:11:37.932Z,21.8
2018-04-23T00:12:27.924Z,21.7
2018-04-23T00:13:18.287Z,21.8
2018-04-23T00:14:08.948Z,21.7
2018-04-23T00:14:58.455Z,21.8
2018-04-23T00:15:48.891Z,21.7
2018-04-23T00:16:38.881Z,21.7
2018-04-23T00:17:29.457Z,21.7
2018-04-23T00:18:18.984Z,21.8
2018-04-23T00:19:08.491Z,21.7
2018-04-23T00:19:59.386Z,21.8
2018-04-23T00:20:49.507Z,21.8
2018-04-23T00:21:38.940Z,21.7
2018-04-23T00:22:29.859Z,21.7
2018-04-23T00:23:20.231Z,21.7
2018-04-23T00:24:10.219Z,21.8
2018-04-23T00:24:59.488Z,21.7
2018-04-23T00:25:49.838Z,21.7
2018-04-23T00:26:40.191Z,21.7
2018-04-23T00:27:29.971Z,21.7
2018-04-23T00:28:20.565Z,21.7
2018-04-23T00:29:10.385Z,21.7
2018-04-23T00:29:59.863Z,21.7
2018-04-23T00:30:50.577Z,21.7
2018-04-23T00:31:39.999Z,21.7
2018-04-23T00:32:30.073Z,21.7
2018-04-23T00:33:20.688Z,21.7
2018-04-23T00:34:09.989Z,21.7
2018-04-23T00:35:00.282Z,21.7
2018-04-23T00:35:50.637Z,21.7
2018-04-23T00:36:40.919Z,21.7
2018-04-23T00:37:30.732Z,21.7
2018-04-23T00:38:20.482Z,21.7
2018-04-23T00:39:10.640Z,21.7
2018-04-23T00:40:00.979Z,21.6
2018-04-23T00:40:51.586Z,21.6
2018-04-23T00:41:41.347Z,21.7
2018-04-23T00:42:30.376Z,21.7
2018-04-23T00:43:21.199Z,21.7
2018-04-23T00:44:11.008Z,21.7
2018-04-23T00:45:01.344Z,21.7
2018-04-23T00:45:51.131Z,21.7
2018-04-23T00:46:41.206Z,21.6
2018-04-23T00:47:30.901Z,21.6
2018-04-23T00:48:21.013Z,21.6
2018-04-23T00:49:12.168Z,21.7
2018-04-23T00:50:01.547Z,21.7
2018-04-23T00:50:51.544Z,21.7
2018-04-23T00:51:41.424Z,21.6
2018-04-23T00:52:31.410Z,21.6
2018-04-23T00:53:21.176Z,21.7
2018-04-23T00:54:12.069Z,21.7
2018-04-23T00:55:01.857Z,21.7
2018-04-23T00:55:52.188Z,21.7
2018-04-23T00:56:42.004Z,21.7
2018-04-23T00:57:32.528Z,21.6
2018-04-23T00:58:22.107Z,21.6
2018-04-23T00:59:12.357Z,21.6
2018-04-23T01:00:03.037Z,21.6
2018-04-23T01:00:52.809Z,21.6
2018-04-23T01:01:42.841Z,21.6
2018-04-23T01:02:31.956Z,21.6
2018-04-23T01:03:23.028Z,21.6
2018-04-23T01:04:13.008Z,21.6
2018-04-23T01:05:03.127Z,21.6
2018-04-23T01:05:53.137Z,21.6
2018-04-23T01:06:42.948Z,21.6
2018-04-23T01:07:32.778Z,21.6
2018-04-23T01:08:23.635Z,21.6
2018-04-23T01:09:12.905Z,21.6
2018-04-23T01:10:03.185Z,21.6
2018-04-23T01:10:53.005Z,21.7
2018-04-23T01:11:43.326Z,21.6
2018-04-23T01:12:33.957Z,21.6
2018-04-23T01:13:23.521Z,21.6
2018-04-23T01:14:14.105Z,21.6
2018-04-23T01:15:03.582Z,21.6
2018-04-23T01:15:53.939Z,21.6
2018-04-23T01:16:43.740Z,21.6
2018-04-23T01:17:34.105Z,21.6
2018-04-23T01:18:24.396Z,21.6
2018-04-23T01:19:14.222Z,21.6
2018-04-23T01:20:04.279Z,21.6
2018-04-23T01:20:53.986Z,21.6
2018-04-23T01:21:44.051Z,21.6
2018-04-23T01:22:34.709Z,21.6
2018-04-23T01:23:24.211Z,21.6
2018-04-23T01:24:14.542Z,21.6
2018-04-23T01:25:04.914Z,21.6
2018-04-23T01:25:54.177Z,21.6
2018-04-23T01:26:44.252Z,21.6
2018-04-23T01:27:34.369Z,21.6
2018-04-23T01:28:23.837Z,21.6
2018-04-23T01:29:14.482Z,21.6
2018-04-23T01:30:04.828Z,21.6
2018-04-23T01:30:54.085Z,21.6
2018-04-23T01:31:44.648Z,21.6
2018-04-23T01:32:34.696Z,21.6
2018-04-23T01:33:24.566Z,21.6
2018-04-23T01:34:14.771Z,21.6
2018-04-23T01:35:04.822Z,21.6
2018-04-23T01:35:55.549Z,21.6
2018-04-23T01:36:45.284Z,21.6
2018-04-23T01:37:35.608Z,21.6
2018-04-23T01:38:25.630Z,21.6
2018-04-23T01:39:15.779Z,21.6
2018-04-23T01:40:06.072Z,21.6
2018-04-23T01:40:56.118Z,21.6
2018-04-23T01:41:46.237Z,21.6
2018-04-23T01:42:36.000Z,21.6
2018-04-23T01:43:25.777Z,21.6
2018-04-23T01:44:15.069Z,21.6
2018-04-23T01:45:05.899Z,21.6
2018-04-23T01:45:56.228Z,21.6
2018-04-23T01:46:46.008Z,21.6
2018-04-23T01:47:36.400Z,21.6
2018-04-23T01:48:25.867Z,21.6
2018-04-23T01:49:16.210Z,21.6
2018-04-23T01:50:06.519Z,21.6
2018-04-23T01:50:56.638Z,21.6
2018-04-23T01:51:47.388Z,21.6
2018-04-23T01:52:37.178Z,21.6
2018-04-23T01:53:26.244Z,21.6
2018-04-23T01:54:16.913Z,21.6
2018-04-23T01:55:07.265Z,21.6
2018-04-23T01:55:56.424Z,21.5
2018-04-23T01:56:47.321Z,21.6
2018-04-23T01:57:36.571Z,21.6
2018-04-23T01:58:27.492Z,21.6
2018-04-23T01:59:18.033Z,21.6
2018-04-23T02:00:07.327Z,21.6
2018-04-23T02:00:57.388Z,21.6
2018-04-23T02:01:47.464Z,21.6
2018-04-23T02:02:36.392Z,21.6
2018-04-23T02:03:25.693Z,21.6
2018-04-23T02:04:16.874Z,21.5
2018-04-23T02:05:06.989Z,21.6
2018-04-23T02:05:57.203Z,21.6
2018-04-23T02:06:47.360Z,21.6
2018-04-23T02:07:37.059Z,21.5
2018-04-23T02:08:27.713Z,21.6
2018-04-23T02:09:18.034Z,21.5
2018-04-23T02:10:08.244Z,21.6
2018-04-23T02:10:58.168Z,21.6
2018-04-23T02:11:47.064Z,21.6
2018-04-23T02:12:38.258Z,21.5
2018-04-23T02:13:28.602Z,21.6
2018-04-23T02:14:18.397Z,21.6
2018-04-23T02:15:08.701Z,21.6
2018-04-23T02:15:58.275Z,21.6
2018-04-23T02:16:48.566Z,21.5
2018-04-23T02:17:38.679Z,21.5
2018-04-23T02:18:29.034Z,21.6
2018-04-23T02:19:18.763Z,21.5
2018-04-23T02:20:07.405Z,21.5
2018-04-23T02:20:59.140Z,21.5
2018-04-23T02:21:48.397Z,21.5
2018-04-23T02:22:38.756Z,21.5
2018-04-23T02:23:29.419Z,21.5
2018-04-23T02:24:19.158Z,21.5
2018-04-23T02:25:09.004Z,21.6
2018-04-23T02:25:59.658Z,21.5
2018-04-23T02:26:49.098Z,21.5
2018-04-23T02:27:38.847Z,21.5
2018-04-23T02:28:29.193Z,21.5
2018-04-23T02:29:19.830Z,21.5
2018-04-23T02:30:09.037Z,21.5
2018-04-23T02:30:59.698Z,21.5
2018-04-23T02:31:48.938Z,21.5
2018-04-23T02:32:39.273Z,21.6
2018-04-23T02:33:29.619Z,21.6
2018-04-23T02:34:19.118Z,21.5
2018-04-23T02:35:09.751Z,21.5
2018-04-23T02:35:59.890Z,21.5
2018-04-23T02:36:50.050Z,21.5
2018-04-23T02:37:39.708Z,21.5
2018-04-23T02:38:30.729Z,21.5
2018-04-23T02:39:20.352Z,21.5
2018-04-23T02:40:10.430Z,21.4
2018-04-23T02:41:00.492Z,21.5
2018-04-23T02:41:50.256Z,21.5
2018-04-23T02:42:40.092Z,21.5
2018-04-23T02:43:30.402Z,21.5
2018-04-23T02:44:20.179Z,21.5
2018-04-23T02:45:10.255Z,21.5
2018-04-23T02:46:01.107Z,21.4
2018-04-23T02:46:50.632Z,21.5
2018-04-23T02:47:40.444Z,21.5
2018-04-23T02:48:30.747Z,21.5
2018-04-23T02:49:20.550Z,21.4
2018-04-23T02:50:10.609Z,21.5
2018-04-23T02:51:01.461Z,21.4
2018-04-23T02:51:50.719Z,21.4
2018-04-23T02:52:41.129Z,21.4
2018-04-23T02:53:30.576Z,21.4
2018-04-23T02:54:20.922Z,21.4
2018-04-23T02:55:11.032Z,21.4
2018-04-23T02:56:01.644Z,21.4
2018-04-23T02:56:50.825Z,21.4
2018-04-23T02:57:41.482Z,21.4
2018-04-23T02:58:31.519Z,21.4
2018-04-23T02:59:22.147Z,21.4
2018-04-23T03:00:11.101Z,21.4
2018-04-23T03:01:00.896Z,21.4
2018-04-23T03:01:52.041Z,21.4
2018-04-23T03:02:41.374Z,21.4
2018-04-23T03:03:32.231Z,21.4
2018-04-23T03:04:22.528Z,21.4
2018-04-23T03:05:12.331Z,21.4
2018-04-23T03:06:02.388Z,21.4
2018-04-23T03:06:52.180Z,21.4
2018-04-23T03:07:42.776Z,21.4
2018-04-23T03:08:31.994Z,21.4
2018-04-23T03:09:22.916Z,21.4
2018-04-23T03:10:12.134Z,21.4
2018-04-23T03:11:02.229Z,21.4
2018-04-23T03:11:52.507Z,21.4
2018-04-23T03:12:42.654Z,21.4
2018-04-23T03:13:32.947Z,21.4
2018-04-23T03:14:22.999Z,21.4
2018-04-23T03:15:13.085Z,21.4
2018-04-23T03:16:03.185Z,21.4
2018-04-23T03:16:53.199Z,21.4
2018-04-23T03:17:43.526Z,21.4
2018-04-23T03:18:33.352Z,21.4
2018-04-23T03:19:23.356Z,21.4
2018-04-23T03:20:13.582Z,21.4
2018-04-23T03:21:03.499Z,21.4
2018-04-23T03:21:53.836Z,21.4
2018-04-23T03:22:43.335Z,21.4
2018-04-23T03:23:33.138Z,21.4
2018-04-23T03:24:23.202Z,21.4
2018-04-23T03:25:13.939Z,21.4
2018-04-23T03:26:04.275Z,21.4
2018-04-23T03:26:53.372Z,21.4
2018-04-23T03:27:43.736Z,21.4
2018-04-23T03:28:33.885Z,21.4
2018-04-23T03:29:23.851Z,21.4
2018-04-23T03:30:13.656Z,21.4
2018-04-23T03:31:04.582Z,21.4
2018-04-23T03:31:53.520Z,21.4
2018-04-23T03:32:44.141Z,21.4
2018-04-23T03:33:34.146Z,21.3
2018-04-23T03:34:24.778Z,21.3
2018-04-23T03:35:13.434Z,21.4
2018-04-23T03:36:04.931Z,21.4
2018-04-23T03:36:54.429Z,21.4
2018-04-23T03:37:44.891Z,21.4
2018-04-23T03:38:35.123Z,21.3
2018-04-23T03:39:24.928Z,21.4
2018-04-23T03:40:14.664Z,21.3
2018-04-23T03:41:05.028Z,21.3
2018-04-23T03:41:55.369Z,21.3
2018-04-23T03:42:44.945Z,21.4
2018-04-23T03:43:34.371Z,21.4
2018-04-23T03:44:25.895Z,21.4
2018-04-23T03:45:15.069Z,21.4
2018-04-23T03:46:05.441Z,21.3
2018-04-23T03:46:54.626Z,21.3
2018-04-23T03:47:45.017Z,21.3
2018-04-23T03:48:35.325Z,21.3
2018-04-23T03:49:25.481Z,21.4
2018-04-23T03:50:15.450Z,21.3
2018-04-23T03:51:06.048Z,21.3
2018-04-23T03:51:55.833Z,21.3
2018-04-23T03:52:45.907Z,21.3
2018-04-23T03:53:35.130Z,21.3
2018-04-23T03:54:26.123Z,21.3
2018-04-23T03:55:16.400Z,21.4
2018-04-23T03:56:06.207Z,21.3
2018-04-23T03:56:56.215Z,21.3
2018-04-23T03:57:46.647Z,21.3
2018-04-23T03:58:35.844Z,21.3
2018-04-23T03:59:26.710Z,21.3
2018-04-23T04:00:16.767Z,21.3
2018-04-23T04:01:06.310Z,21.3
2018-04-23T04:01:56.387Z,21.3
2018-04-23T04:02:46.097Z,21.3
2018-04-23T04:03:36.766Z,21.3
2018-04-23T04:04:26.808Z,21.3
2018-04-23T04:05:16.630Z,21.3
2018-04-23T04:06:06.702Z,21.3
2018-04-23T04:06:56.972Z,21.3
2018-04-23T04:07:46.497Z,21.3
2018-04-23T04:08:37.396Z,21.3
2018-04-23T04:09:26.889Z,21.3
2018-04-23T04:10:17.553Z,21.3
2018-04-23T04:11:07.334Z,21.3
2018-04-23T04:11:57.121Z,21.3
2018-04-23T04:12:47.220Z,21.3
2018-04-23T04:13:37.230Z,21.3
2018-04-23T04:14:27.327Z,21.3
2018-04-23T04:15:17.347Z,21.3
2018-04-23T04:16:08.072Z,21.3
2018-04-23T04:16:58.361Z,21.3
2018-04-23T04:17:48.108Z,21.3
2018-04-23T04:18:37.631Z,21.3
2018-04-23T04:19:27.754Z,21.3
2018-04-23T04:20:17.744Z,21.3
2018-04-23T04:21:07.528Z,21.3
2018-04-23T04:21:57.618Z,21.4
2018-04-23T04:22:48.523Z,21.3
2018-04-23T04:23:38.049Z,21.3
2018-04-23T04:24:28.397Z,21.4
2018-04-23T04:25:18.702Z,21.4
2018-04-23T04:26:08.752Z,21.3
2018-04-23T04:26:58.245Z,21.3
2018-04-23T04:27:47.766Z,21.3
2018-04-23T04:28:38.680Z,21.4
2018-04-23T04:29:28.759Z,21.4
2018-04-23T04:30:18.791Z,21.4
2018-04-23T04:31:08.606Z,21.3
2018-04-23T04:31:59.188Z,21.4
2018-04-23T04:32:49.297Z,21.3
2018-04-23T04:33:39.052Z,21.4
2018-04-23T04:34:29.098Z,21.4
2018-04-23T04:35:19.141Z,21.4
2018-04-23T04:36:09.244Z,21.4
2018-04-23T04:36:59.298Z,21.4
2018-04-23T04:37:49.443Z,21.4
2018-04-23T04:38:39.168Z,21.4
2018-04-23T04:39:29.766Z,21.4
2018-04-23T04:40:19.617Z,21.4
2018-04-23T04:41:09.702Z,21.4
2018-04-23T04:41:59.746Z,21.4
2018-04-23T04:42:50.123Z,21.4
2018-04-23T04:43:39.022Z,21.4
2018-04-23T04:44:29.341Z,21.4
2018-04-23T04:45:19.728Z,21.4
2018-04-23T04:46:10.174Z,21.4
2018-04-23T04:47:00.525Z,21.4
2018-04-23T04:47:49.917Z,21.4
2018-04-23T04:48:40.531Z,21.4
2018-04-23T04:49:30.611Z,21.4
2018-04-23T04:50:20.140Z,21.4
2018-04-23T04:51:10.406Z,21.4
2018-04-23T04:52:00.552Z,21.4
2018-04-23T04:52:49.660Z,21.4
2018-04-23T04:53:40.125Z,21.4
2018-04-23T04:54:30.409Z,21.4
2018-04-23T04:55:20.461Z,21.4
2018-04-23T04:56:09.671Z,21.4
2018-04-23T04:57:00.810Z,21.5
2018-04-23T04:57:50.341Z,21.5
2018-04-23T04:58:41.218Z,21.5
2018-04-23T04:59:31.321Z,21.5
2018-04-23T05:00:21.342Z,21.5
2018-04-23T05:01:10.883Z,21.4
2018-04-23T05:02:00.959Z,21.5
2018-04-23T07:13:36.738Z,22.1
2018-04-23T07:14:27.046Z,22.3
2018-04-23T07:15:17.173Z,22.1
2018-04-23T07:16:06.914Z,22.2
2018-04-23T07:16:56.802Z,22.1
2018-04-23T07:17:47.038Z,22.1
2018-04-23T07:18:37.475Z,22.2
2018-04-23T07:19:26.719Z,22.2
2018-04-23T07:20:16.962Z,22.2
2018-04-23T07:21:07.006Z,22.2
2018-04-23T07:21:56.867Z,22.2
2018-04-23T07:22:47.130Z,22.2
2018-04-23T07:23:37.846Z,22.4
2018-04-23T07:24:27.277Z,22.3
2018-04-23T07:25:17.635Z,22.3
2018-04-23T07:26:06.873Z,22.3
2018-04-23T07:26:57.498Z,22.2
2018-04-23T07:27:47.543Z,22.1
2018-04-23T07:28:37.144Z,22.1
2018-04-23T07:29:27.894Z,22
2018-04-23T07:30:17.624Z,21.9
2018-04-23T07:31:08.118Z,21.9
2018-04-23T07:31:56.918Z,21.9
2018-04-23T07:32:48.463Z,21.9
2018-04-23T07:33:37.197Z,22
2018-04-23T07:34:28.587Z,21.9
2018-04-23T07:35:18.392Z,21.8
2018-04-23T07:36:08.002Z,21.8
2018-04-23T07:36:58.255Z,21.8
2018-04-23T07:37:48.098Z,21.8
2018-04-23T07:38:38.927Z,21.9
2018-04-23T07:39:28.543Z,22
2018-04-23T07:40:19.065Z,21.9
2018-04-23T07:41:09.100Z,22
2018-04-23T07:41:58.381Z,22
2018-04-23T07:42:48.706Z,22.1
2018-04-23T07:43:39.043Z,22.1
2018-04-23T07:44:29.083Z,22.1
2018-04-23T07:45:18.361Z,22.1
2018-04-23T07:46:08.713Z,22.1
2018-04-23T07:46:59.249Z,22.3
2018-04-23T07:47:49.238Z,22.3
2018-04-23T07:48:38.870Z,22.2
2018-04-23T07:49:29.023Z,22.1
2018-04-23T07:50:19.369Z,22.2
2018-04-23T07:51:09.376Z,22.2
2018-04-23T07:51:59.122Z,22.2
2018-04-23T07:52:50.035Z,22.2
2018-04-23T07:53:39.831Z,22.3
2018-04-23T07:54:29.369Z,22.2
2018-04-23T07:55:19.970Z,22.3
2018-04-23T07:56:09.208Z,22.3
2018-04-23T07:57:00.409Z,22.3
2018-04-23T07:57:50.208Z,22.3
2018-04-23T07:58:39.424Z,22.3
2018-04-23T07:59:30.578Z,22.3
2018-04-23T08:00:20.056Z,22.3
2018-04-23T08:01:10.171Z,22.3
2018-04-23T08:02:00.760Z,22.3
2018-04-23T08:02:49.991Z,22.3
2018-04-23T08:03:40.310Z,22.4
2018-04-23T08:04:30.423Z,22.4
2018-04-23T08:05:20.740Z,22.4
2018-04-23T08:06:10.863Z,22.4
2018-04-23T08:07:01.302Z,22.3
2018-04-23T08:07:50.898Z,22.4
2018-04-23T08:08:41.307Z,22.3
2018-04-23T08:09:31.346Z,22.3
2018-04-23T08:10:21.401Z,22.4
2018-04-23T08:11:10.421Z,22.4
2018-04-23T08:12:01.257Z,22.4
2018-04-23T08:12:51.306Z,22.3
2018-04-23T08:13:40.805Z,22.4
2018-04-23T08:14:30.305Z,22.3
2018-04-23T08:15:21.518Z,22.4
2018-04-23T08:16:10.838Z,22.3
2018-04-23T08:17:00.809Z,22.4
2018-04-23T08:17:51.410Z,22.4
2018-04-23T08:18:40.575Z,22.4
2018-04-23T08:19:31.336Z,22.4
2018-04-23T08:20:20.890Z,22.4
2018-04-23T08:21:11.943Z,22.4
2018-04-23T08:22:02.065Z,22.5
2018-04-23T08:22:51.550Z,22.5
2018-04-23T08:23:42.493Z,22.4
2018-04-23T08:24:32.525Z,22.5
2018-04-23T08:25:20.429Z,22.4
2018-04-23T08:26:12.114Z,22.4
2018-04-23T08:27:02.143Z,22.4
2018-04-23T08:27:52.038Z,22.4
2018-04-23T08:28:42.253Z,22.4
2018-04-23T08:29:32.689Z,22.4
2018-04-23T08:30:23.007Z,22.4
2018-04-23T08:31:13.087Z,22.4
2018-04-23T08:32:03.574Z,22.4
2018-04-23T08:32:52.606Z,22.4
2018-04-23T08:33:42.096Z,22.4
2018-04-23T08:34:32.446Z,22.4
2018-04-23T08:35:23.372Z,22.4
2018-04-23T08:36:12.377Z,22.4
2018-04-23T08:37:03.217Z,22.4
2018-04-23T08:37:52.999Z,22.4
2018-04-23T08:38:43.073Z,22.4
2018-04-23T08:39:33.158Z,22.4
2018-04-23T08:40:23.114Z,22.5
2018-04-23T08:41:13.820Z,22.5
2018-04-23T08:42:03.298Z,22.4
2018-04-23T08:42:53.115Z,22.4
2018-04-23T08:43:44.233Z,22.4
2018-04-23T08:44:34.058Z,22.5
2018-04-23T08:45:23.883Z,22.4
2018-04-23T08:46:13.599Z,22.4
2018-04-23T08:47:03.966Z,22.5
2018-04-23T08:47:54.039Z,22.5
2018-04-23T08:48:44.106Z,22.5
2018-04-23T08:49:34.464Z,22.4
2018-04-23T08:50:24.529Z,22.4
2018-04-23T08:51:13.999Z,22.4
2018-04-23T08:52:04.674Z,22.5
2018-04-23T08:52:54.183Z,22.5
2018-04-23T08:53:44.563Z,22.4
2018-04-23T08:54:34.846Z,22.4
2018-04-23T08:55:24.395Z,22.5
2018-04-23T08:56:14.442Z,22.4
2018-04-23T08:57:04.536Z,22.6
2018-04-23T08:57:55.115Z,22.6
2018-04-23T08:58:44.916Z,22.6
2018-04-23T08:59:34.450Z,22.6
2018-04-23T09:00:25.517Z,22.5
2018-04-23T09:01:14.841Z,22.5
2018-04-23T09:02:05.199Z,22.6
2018-04-23T09:02:54.692Z,22.5
2018-04-23T09:03:45.323Z,22.5
2018-04-23T09:04:35.407Z,22.5
2018-04-23T09:05:25.184Z,22.4
2018-04-23T09:06:14.975Z,22.4
2018-04-23T09:07:04.744Z,22.5
2018-04-23T09:07:55.384Z,22.5
2018-04-23T09:08:45.444Z,22.6
2018-04-23T09:09:35.813Z,22.5
2018-04-23T09:10:25.915Z,22.5
2018-04-23T09:11:16.194Z,22.4
2018-04-23T09:12:06.308Z,22.4
2018-04-23T09:12:55.483Z,22.5
2018-04-23T09:13:45.266Z,22.5
2018-04-23T09:14:36.501Z,22.5
2018-04-23T09:15:26.521Z,22.4
2018-04-23T09:16:16.056Z,22.5
2018-04-23T09:17:05.788Z,22.6
2018-04-23T09:17:57.655Z,22.6
2018-04-23T09:18:46.184Z,22.6
2018-04-23T09:19:36.598Z,22.6
2018-04-23T09:20:24.663Z,22.6
2018-04-23T09:21:16.124Z,22.5
2018-04-23T09:22:06.472Z,22.6
2018-04-23T09:22:56.572Z,22.6
2018-04-23T09:23:46.368Z,22.6
2018-04-23T09:24:36.975Z,22.5
2018-04-23T09:25:27.043Z,22.5
2018-04-23T09:26:17.406Z,22.6
2018-04-23T09:27:06.332Z,22.6
2018-04-23T09:27:56.955Z,22.6
2018-04-23T09:28:47.030Z,22.6
2018-04-23T09:29:36.294Z,22.6
2018-04-23T09:30:27.167Z,22.6
2018-04-23T09:31:17.455Z,22.6
2018-04-23T09:32:06.534Z,22.6
2018-04-23T09:32:56.259Z,22.6
2018-04-23T09:33:46.514Z,22.7
2018-04-23T09:34:38.016Z,22.6
2018-04-23T09:35:27.282Z,22.6
2018-04-23T09:36:17.878Z,22.6
2018-04-23T09:37:07.739Z,22.6
2018-04-23T09:37:57.939Z,22.6
2018-04-23T09:38:48.042Z,22.7
2018-04-23T09:39:37.823Z,22.6
2018-04-23T09:40:27.365Z,22.6
2018-04-23T09:41:18.239Z,22.6
2018-04-23T09:42:08.026Z,22.6
2018-04-23T09:42:58.652Z,22.6
2018-04-23T09:43:48.186Z,22.6
2018-04-23T09:44:39.502Z,22.7
2018-04-23T09:45:28.051Z,22.7
2018-04-23T09:46:18.165Z,22.7
2018-04-23T09:47:08.464Z,22.6
2018-04-23T09:47:58.511Z,22.6
2018-04-23T09:48:48.301Z,22.6
2018-04-23T09:49:38.941Z,22.6
2018-04-23T09:50:28.421Z,22.6
2018-04-23T09:51:18.332Z,22.6
2018-04-23T09:52:08.881Z,22.6
2018-04-23T09:52:58.935Z,22.6
2018-04-23T09:53:49.286Z,22.7
2018-04-23T09:54:39.062Z,22.7
2018-04-23T09:55:28.590Z,22.6
2018-04-23T09:56:19.233Z,22.6
2018-04-23T09:57:09.212Z,22.7
2018-04-23T09:57:58.999Z,22.7
2018-04-23T09:58:49.301Z,22.6
2018-04-23T09:59:38.412Z,22.6
2018-04-23T10:00:30.031Z,22.6
2018-04-23T10:01:20.066Z,22.6
2018-04-23T10:02:10.203Z,22.6
2018-04-23T10:03:00.241Z,22.6
2018-04-23T10:03:49.157Z,22.6
2018-04-23T10:04:39.540Z,22.6
2018-04-23T10:05:30.147Z,22.6
2018-04-23T10:06:19.112Z,22.6
2018-04-23T10:07:10.045Z,22.6
2018-04-23T10:08:00.347Z,22.6
2018-04-23T10:08:50.394Z,22.6
2018-04-23T10:09:40.778Z,22.6
2018-04-23T10:10:30.509Z,22.6
2018-04-23T10:11:20.326Z,22.6
2018-04-23T10:12:11.102Z,22.6
2018-04-23T10:12:59.966Z,22.6
2018-04-23T10:13:50.242Z,22.6
2018-04-23T10:14:41.151Z,22.6
2018-04-23T10:15:30.464Z,22.6
2018-04-23T10:16:20.719Z,22.6
2018-04-23T10:17:11.063Z,22.6
2018-04-23T10:18:00.824Z,22.6
2018-04-23T10:18:51.156Z,22.6
2018-04-23T10:19:40.415Z,22.6
2018-04-23T10:20:31.607Z,22.6
2018-04-23T10:21:21.638Z,22.6
2018-04-23T10:22:10.915Z,22.7
2018-04-23T10:23:01.779Z,22.8
2018-04-23T10:23:51.061Z,22.8
2018-04-23T10:24:41.086Z,22.8
2018-04-23T10:25:31.523Z,22.8
2018-04-23T10:26:21.766Z,22.8
2018-04-23T10:27:11.808Z,22.7
2018-04-23T10:28:01.908Z,22.8
2018-04-23T10:28:51.397Z,22.7
2018-04-23T10:29:42.076Z,22.7
2018-04-23T10:30:32.423Z,22.7
2018-04-23T10:31:22.375Z,22.7
2018-04-23T10:32:11.980Z,22.6
2018-04-23T10:33:01.877Z,22.6
2018-04-23T10:33:52.729Z,22.6
2018-04-23T10:34:41.609Z,22.6
2018-04-23T10:35:32.541Z,22.7
2018-04-23T10:36:22.591Z,22.7
2018-04-23T10:37:12.641Z,22.7
2018-04-23T10:38:02.733Z,22.7
2018-04-23T10:38:51.748Z,22.7
2018-04-23T10:39:42.856Z,22.7
2018-04-23T10:40:32.622Z,22.8
2018-04-23T10:41:22.677Z,22.8
2018-04-23T10:42:12.995Z,22.8
2018-04-23T10:43:03.376Z,22.8
2018-04-23T10:43:53.117Z,22.8
2018-04-23T10:44:42.709Z,22.8
2018-04-23T10:45:34.158Z,22.8
2018-04-23T10:46:22.783Z,22.8
2018-04-23T10:47:12.831Z,22.8
2018-04-23T10:48:03.763Z,22.8
2018-04-23T10:48:53.309Z,22.8
2018-04-23T10:49:43.334Z,22.8
2018-04-23T10:50:33.681Z,22.7
2018-04-23T10:51:23.460Z,22.8
2018-04-23T10:52:12.388Z,22.8
2018-04-23T10:53:03.894Z,22.8
2018-04-23T10:53:53.901Z,22.8
2018-04-23T10:54:43.192Z,22.8
2018-04-23T10:55:34.088Z,22.8
2018-04-23T10:56:23.568Z,22.8
2018-04-23T10:57:13.198Z,22.8
2018-04-23T10:58:04.006Z,22.9
2018-04-23T10:58:54.354Z,22.9
2018-04-23T10:59:44.402Z,22.9
2018-04-23T11:00:34.478Z,22.9
2018-04-23T11:01:24.275Z,22.9
2018-04-23T11:02:14.048Z,22.9
2018-04-23T11:03:03.909Z,22.9
2018-04-23T11:03:53.999Z,22.9
2018-04-23T11:04:43.735Z,22.9
2018-04-23T11:05:34.593Z,22.9
2018-04-23T11:06:24.331Z,22.9
2018-04-23T11:07:15.289Z,22.9
2018-04-23T11:08:04.527Z,22.9
2018-04-23T11:08:55.111Z,22.9
2018-04-23T11:09:45.272Z,22.9
2018-04-23T11:10:34.959Z,22.9
2018-04-23T11:11:25.293Z,22.8
2018-04-23T11:12:15.698Z,22.9
2018-04-23T11:13:04.242Z,22.9
2018-04-23T11:13:55.502Z,22.8
2018-04-23T11:14:45.005Z,22.8
2018-04-23T11:15:35.392Z,22.8
2018-04-23T11:16:25.964Z,22.9
2018-04-23T11:17:15.231Z,22.9
2018-04-23T11:18:05.546Z,22.9
2018-04-23T11:18:55.366Z,22.9
2018-04-23T11:19:45.743Z,22.9
2018-04-23T11:20:35.495Z,22.9
2018-04-23T11:21:25.568Z,22.9
2018-04-23T11:22:16.186Z,22.9
2018-04-23T11:23:05.447Z,23
2018-04-23T11:23:56.034Z,23.1
2018-04-23T11:24:46.730Z,23.1
2018-04-23T11:25:35.716Z,23.1
2018-04-23T11:26:25.969Z,23.1
2018-04-23T11:27:15.473Z,23.1
2018-04-23T11:28:06.376Z,23
2018-04-23T11:28:56.155Z,22.9
2018-04-23T11:29:46.216Z,22.9
2018-04-23T11:30:36.095Z,23
2018-04-23T11:31:26.620Z,23.1
2018-04-23T11:32:15.868Z,23.1
2018-04-23T11:33:07.080Z,23.2
2018-04-23T11:33:57.125Z,23.3
2018-04-23T11:34:46.602Z,23.3
2018-04-23T11:35:37.251Z,23.3
2018-04-23T11:36:27.028Z,23.1
2018-04-23T11:37:16.055Z,23.1
2018-04-23T11:38:07.183Z,23.1
2018-04-23T11:38:57.010Z,23.1
2018-04-23T11:39:47.347Z,23.1
2018-04-23T11:40:36.502Z,23
2018-04-23T11:41:27.404Z,23
2018-04-23T11:42:17.214Z,23.1
2018-04-23T11:43:07.305Z,23.1
2018-04-23T11:43:56.564Z,23.1
2018-04-23T11:44:46.919Z,23.1
2018-04-23T11:45:38.029Z,23.1
2018-04-23T11:46:27.543Z,23
2018-04-23T11:47:17.716Z,23.1
2018-04-23T11:48:08.477Z,23
2018-04-23T11:48:58.318Z,23
2018-04-23T11:49:47.745Z,22.9
2018-04-23T11:50:38.719Z,22.9
2018-04-23T11:51:27.914Z,22.9
2018-04-23T11:52:18.004Z,22.9
2018-04-23T11:53:08.490Z,23.1
2018-04-23T11:53:58.419Z,23.1
2018-04-23T11:54:48.184Z,23.1
2018-04-23T11:55:38.518Z,23.1
2018-04-23T11:56:28.345Z,23.1
2018-04-23T11:57:18.953Z,23.1
2018-04-23T11:58:08.730Z,23.1
2018-04-23T11:58:58.841Z,23.1
2018-04-23T11:59:48.446Z,23.1
2018-04-23T12:00:39.169Z,23.1
2018-04-23T12:01:29.278Z,23.2
2018-04-23T12:02:19.577Z,23.1
2018-04-23T12:03:09.448Z,23.2
2018-04-23T12:03:59.178Z,23.1
2018-04-23T12:04:49.253Z,23.1
2018-04-23T12:05:39.857Z,23.1
2018-04-23T12:06:28.514Z,23.1
2018-04-23T12:07:19.456Z,23.1
2018-04-23T12:08:08.013Z,23.1
2018-04-23T12:08:58.448Z,23.3
2018-04-23T12:09:49.163Z,23.3
2018-04-23T12:10:38.865Z,23.1
2018-04-23T12:11:30.082Z,23
2018-04-23T12:12:19.134Z,23.1
2018-04-23T12:13:09.007Z,23.1
2018-04-23T12:13:58.010Z,23.2
2018-04-23T12:14:49.184Z,23.1
2018-04-23T12:15:39.827Z,23.1
2018-04-23T12:16:30.672Z,23.1
2018-04-23T12:17:20.777Z,23.1
2018-04-23T12:18:10.276Z,23.1
2018-04-23T12:19:00.320Z,23.1
2018-04-23T12:19:50.467Z,23.1
2018-04-23T12:20:39.632Z,23.2
2018-04-23T12:21:30.811Z,23.1
2018-04-23T12:22:20.647Z,23.1
2018-04-23T12:23:10.735Z,23.1
2018-04-23T12:24:00.989Z,23.2
2018-04-23T12:24:50.267Z,23.1
2018-04-23T12:25:41.412Z,23.1
2018-04-23T12:26:31.480Z,23.1
2018-04-23T12:27:21.632Z,23.1
2018-04-23T12:28:11.317Z,23.1
2018-04-23T12:29:01.697Z,23.2
2018-04-23T12:29:50.945Z,23.2
2018-04-23T12:30:41.815Z,23.2
2018-04-23T12:31:31.915Z,23.1
2018-04-23T12:32:21.452Z,23.2
2018-04-23T12:33:11.808Z,23.3
2018-04-23T12:34:02.115Z,23.2
2018-04-23T12:34:51.943Z,23.2
2018-04-23T12:35:41.471Z,23.1
2018-04-23T12:36:32.090Z,23.1
2018-04-23T12:37:21.882Z,23.1
2018-04-23T12:38:12.313Z,23
2018-04-23T12:39:01.994Z,23.1
2018-04-23T12:39:52.035Z,23.2
2018-04-23T12:40:42.756Z,23.2
2018-04-23T12:41:32.473Z,23.2
2018-04-23T12:42:21.705Z,23.3
2018-04-23T12:43:12.618Z,23.3
2018-04-23T12:44:02.075Z,23.2
2018-04-23T12:45:06.801Z,23.2
2018-04-23T12:45:43.099Z,23.1
2018-04-23T12:46:31.704Z,23.1
2018-04-23T12:47:23.147Z,23.1
2018-04-23T12:48:12.950Z,23.1
2018-04-23T12:49:03.289Z,23.1
2018-04-23T12:49:52.576Z,23.1
2018-04-23T12:50:42.855Z,23.2
2018-04-23T12:51:33.476Z,23.2
2018-04-23T12:52:23.338Z,23.3
2018-04-23T12:53:13.326Z,23.2
2018-04-23T12:54:02.850Z,23.3
2018-04-23T12:54:53.521Z,23.3
2018-04-23T12:55:43.810Z,23.3
2018-04-23T12:56:33.148Z,23.3
2018-04-23T12:57:22.801Z,23.3
2018-04-23T12:58:13.145Z,23.3
2018-04-23T12:59:03.825Z,23.3
2018-04-23T12:59:53.018Z,23.4
2018-04-23T13:00:43.950Z,23.3
2018-04-23T13:01:34.258Z,23.3
2018-04-23T13:02:23.521Z,23.4
2018-04-23T13:03:13.558Z,23.3
2018-04-23T13:04:03.807Z,23.3
2018-04-23T13:04:53.785Z,23.3
2018-04-23T13:05:44.033Z,23.3
2018-04-23T13:06:34.416Z,23.4
2018-04-23T13:07:24.457Z,23.3
2018-04-23T13:08:13.978Z,23.3
2018-04-23T13:09:03.470Z,23.3
2018-04-23T13:09:53.527Z,23.4
2018-04-23T13:10:44.451Z,23.4
2018-04-23T13:11:34.553Z,23.3
2018-04-23T13:12:25.830Z,23.3
2018-04-23T13:13:14.637Z,23.3
2018-04-23T13:14:04.715Z,23.3
2018-04-23T13:14:55.037Z,23.3
2018-04-23T13:15:43.990Z,23.3
2018-04-23T13:16:35.211Z,23.3
2018-04-23T13:17:25.317Z,23.3
2018-04-23T13:18:14.852Z,23.4